createdAt,value
2017-11-29T00:00:47.683Z,83.47
2017-11-29T00:03:15.281Z,83.49
2017-11-29T00:05:42.863Z,83.51
2017-11-29T00:08:10.512Z,83.61
2017-11-29T00:10:38.063Z,83.49
2017-11-29T00:13:05.667Z,83.86
2017-11-29T00:15:33.281Z,84.43
2017-11-29T00:18:00.842Z,83.89
2017-11-29T00:20:28.402Z,83.82
2017-11-29T00:22:56.004Z,84.00
2017-11-29T00:25:23.551Z,84.07
2017-11-29T00:30:41.582Z,85.46
2017-11-29T00:33:09.372Z,85.75
2017-11-29T00:35:36.935Z,85.79
2017-11-29T00:38:04.546Z,85.66
2017-11-29T00:40:32.107Z,85.12
2017-11-29T00:42:59.703Z,84.80
2017-11-29T00:45:27.323Z,83.97
2017-11-29T00:47:54.892Z,83.98
2017-11-29T00:50:22.459Z,84.04
2017-11-29T00:52:50.065Z,84.05
2017-11-29T00:55:17.635Z,84.22
2017-11-29T00:57:45.196Z,83.99
2017-11-29T01:00:12.789Z,83.69
2017-11-29T01:02:40.382Z,83.94
2017-11-29T01:05:07.964Z,84.33
2017-11-29T01:07:35.531Z,84.59
2017-11-29T01:10:03.106Z,84.47
2017-11-29T01:12:30.716Z,84.27
2017-11-29T01:14:58.253Z,83.70
2017-11-29T01:17:25.815Z,83.58
2017-11-29T01:19:53.393Z,83.77
2017-11-29T01:22:20.948Z,84.35
2017-11-29T01:24:48.550Z,84.66
2017-11-29T01:27:16.128Z,84.59
2017-11-29T01:29:43.732Z,84.27
2017-11-29T01:32:11.421Z,84.44
2017-11-29T01:34:39.039Z,84.54
2017-11-29T01:37:06.712Z,84.82
2017-11-29T01:39:34.296Z,85.21
2017-11-29T01:42:01.858Z,86.27
2017-11-29T01:44:29.464Z,86.51
2017-11-29T01:46:57.059Z,86.86
2017-11-29T01:49:24.619Z,87.73
2017-11-29T01:51:52.191Z,88.12
2017-11-29T01:54:19.823Z,88.55
2017-11-29T01:56:47.381Z,88.28
2017-11-29T01:59:14.960Z,88.41
2017-11-29T02:01:42.516Z,88.33
2017-11-29T02:04:10.142Z,88.07
2017-11-29T02:06:40.564Z,88.51
2017-11-29T02:09:08.185Z,88.31
2017-11-29T02:11:35.775Z,88.23
2017-11-29T02:14:03.325Z,88.29
2017-11-29T02:16:30.940Z,88.50
2017-11-29T02:18:58.500Z,87.66
2017-11-29T02:21:26.076Z,87.49
2017-11-29T02:23:53.671Z,87.79
2017-11-29T02:26:21.306Z,88.24
2017-11-29T02:28:48.963Z,88.42
2017-11-29T02:31:16.598Z,89.39
2017-11-29T02:33:44.294Z,90.04
2017-11-29T02:36:12.065Z,90.53
2017-11-29T02:38:39.693Z,90.94
2017-11-29T02:41:19.189Z,91.42
2017-11-29T02:43:47.296Z,91.54
2017-11-29T02:46:15.277Z,91.48
2017-11-29T02:48:42.916Z,91.35
2017-11-29T02:51:10.737Z,91.63
2017-11-29T02:53:38.329Z,92.12
2017-11-29T02:56:05.925Z,92.24
2017-11-29T02:58:33.596Z,92.19
2017-11-29T03:01:01.166Z,92.29
2017-11-29T03:03:28.743Z,92.30
2017-11-29T03:05:56.374Z,92.31
2017-11-29T03:08:24.014Z,92.23
2017-11-29T03:10:51.641Z,92.33
2017-11-29T03:13:19.319Z,91.81
2017-11-29T03:15:46.940Z,92.30
2017-11-29T03:18:14.488Z,92.45
2017-11-29T03:20:42.049Z,91.38
2017-11-29T03:23:09.745Z,90.61
2017-11-29T03:25:37.379Z,90.22
2017-11-29T03:28:04.944Z,89.93
2017-11-29T03:30:32.526Z,90.03
2017-11-29T03:33:00.138Z,90.06
2017-11-29T03:35:27.716Z,90.14
2017-11-29T03:37:55.306Z,90.74
2017-11-29T03:40:22.882Z,91.24
2017-11-29T03:42:50.470Z,91.82
2017-11-29T03:45:18.126Z,92.43
2017-11-29T03:47:45.715Z,92.89
2017-11-29T03:50:13.285Z,93.35
2017-11-29T03:52:40.902Z,93.69
2017-11-29T03:55:08.502Z,93.82
2017-11-29T03:57:36.079Z,93.90
2017-11-29T04:00:04.348Z,94.08
2017-11-29T04:02:32.017Z,93.31
2017-11-29T04:04:59.619Z,93.05
2017-11-29T04:07:27.223Z,93.27
2017-11-29T04:09:54.796Z,92.20
2017-11-29T04:12:23.258Z,92.06
2017-11-29T04:14:50.957Z,91.81
2017-11-29T04:17:18.581Z,91.31
2017-11-29T04:19:46.244Z,91.33
2017-11-29T04:22:13.917Z,91.52
2017-11-29T04:24:41.532Z,92.21
2017-11-29T04:27:09.312Z,92.73
2017-11-29T04:29:36.960Z,93.25
2017-11-29T04:32:04.525Z,93.85
2017-11-29T04:34:32.086Z,94.32
2017-11-29T04:36:59.711Z,94.68
2017-11-29T04:39:27.298Z,94.69
2017-11-29T04:41:54.884Z,94.73
2017-11-29T04:44:22.495Z,94.93
2017-11-29T04:46:50.064Z,94.57
2017-11-29T04:49:17.659Z,94.84
2017-11-29T04:51:45.302Z,94.33
2017-11-29T04:54:12.912Z,93.04
2017-11-29T04:56:40.537Z,92.57
2017-11-29T04:59:08.144Z,92.98
2017-11-29T05:01:35.850Z,92.61
2017-11-29T05:04:03.477Z,93.50
2017-11-29T05:06:31.150Z,93.94
2017-11-29T05:08:58.772Z,94.40
2017-11-29T05:11:26.451Z,94.75
2017-11-29T05:13:54.023Z,94.95
2017-11-29T05:16:21.638Z,94.23
2017-11-29T05:18:49.289Z,93.69
2017-11-29T05:21:16.871Z,93.38
2017-11-29T05:23:44.473Z,92.73
2017-11-29T05:26:12.060Z,93.07
2017-11-29T05:28:39.679Z,92.85
2017-11-29T05:31:07.306Z,92.26
2017-11-29T05:33:34.978Z,92.00
2017-11-29T05:36:02.579Z,92.01
2017-11-29T05:38:30.187Z,91.97
2017-11-29T05:43:29.640Z,91.72
2017-11-29T05:45:57.249Z,91.99
2017-11-29T05:48:24.898Z,92.95
2017-11-29T05:50:52.478Z,93.53
2017-11-29T05:53:20.068Z,93.99
2017-11-29T05:55:47.696Z,94.30
2017-11-29T05:58:15.269Z,94.69
2017-11-29T06:00:42.854Z,94.59
2017-11-29T06:03:10.733Z,94.25
2017-11-29T06:05:38.327Z,93.79
2017-11-29T06:08:05.907Z,93.94
2017-11-29T06:10:33.497Z,94.07
2017-11-29T06:13:01.096Z,93.86
2017-11-29T06:15:28.685Z,94.05
2017-11-29T06:17:56.298Z,93.98
2017-11-29T06:20:23.869Z,94.15
2017-11-29T06:22:51.453Z,93.80
2017-11-29T06:25:19.042Z,93.43
2017-11-29T06:27:46.609Z,93.18
2017-11-29T06:30:14.202Z,92.84
2017-11-29T06:32:41.771Z,92.62
2017-11-29T06:35:09.435Z,92.18
2017-11-29T06:37:37.029Z,92.74
2017-11-29T06:40:04.643Z,93.41
2017-11-29T06:42:32.231Z,93.88
2017-11-29T06:44:59.805Z,94.06
2017-11-29T06:47:27.432Z,93.72
2017-11-29T06:49:54.988Z,93.18
2017-11-29T06:52:22.891Z,93.37
2017-11-29T06:54:50.550Z,93.50
2017-11-29T06:57:18.182Z,93.54
2017-11-29T06:59:45.750Z,93.82
2017-11-29T07:02:14.124Z,94.22
2017-11-29T07:04:42.311Z,94.42
2017-11-29T07:07:10.595Z,94.71
2017-11-29T07:09:38.196Z,94.87
2017-11-29T07:12:06.492Z,94.64
2017-11-29T07:14:34.087Z,93.13
2017-11-29T07:17:03.608Z,93.19
2017-11-29T07:19:31.222Z,93.34
2017-11-29T07:21:58.815Z,93.07
2017-11-29T07:24:26.444Z,93.40
2017-11-29T07:26:54.044Z,93.69
2017-11-29T07:29:21.635Z,93.88
2017-11-29T07:31:49.297Z,93.66
2017-11-29T07:34:16.867Z,94.02
2017-11-29T07:36:44.423Z,94.29
2017-11-29T07:39:12.315Z,94.66
2017-11-29T07:41:39.859Z,94.73
2017-11-29T07:44:07.443Z,94.35
2017-11-29T07:46:35.265Z,93.93
2017-11-29T07:49:02.852Z,94.14
2017-11-29T07:51:30.409Z,94.44
2017-11-29T07:53:58.026Z,94.77
2017-11-29T07:56:25.606Z,95.06
2017-11-29T07:58:53.180Z,94.76
2017-11-29T08:01:21.016Z,95.25
2017-11-29T08:03:48.680Z,93.52
2017-11-29T08:06:16.278Z,93.40
2017-11-29T08:08:43.879Z,93.19
2017-11-29T08:11:11.642Z,93.52
2017-11-29T08:13:39.219Z,93.96
2017-11-29T08:16:07.644Z,93.59
2017-11-29T08:18:35.193Z,93.23
2017-11-29T08:21:02.772Z,93.59
2017-11-29T08:23:30.363Z,93.84
2017-11-29T08:25:57.943Z,93.50
2017-11-29T08:28:25.639Z,93.58
2017-11-29T08:30:53.223Z,93.99
2017-11-29T08:33:20.937Z,94.35
2017-11-29T08:35:48.627Z,94.68
2017-11-29T08:38:16.241Z,94.24
2017-11-29T08:40:43.905Z,94.30
2017-11-29T08:43:11.696Z,93.41
2017-11-29T08:45:39.320Z,92.54
2017-11-29T08:48:06.908Z,93.28
2017-11-29T08:50:34.515Z,93.64
2017-11-29T08:53:02.141Z,94.05
2017-11-29T08:55:29.761Z,92.86
2017-11-29T08:57:57.354Z,92.52
2017-11-29T09:00:25.016Z,92.93
2017-11-29T09:02:52.609Z,93.25
2017-11-29T09:05:20.225Z,93.65
2017-11-29T09:07:47.784Z,93.65
2017-11-29T09:10:15.381Z,93.50
2017-11-29T09:12:43.011Z,93.78
2017-11-29T09:15:10.795Z,94.14
2017-11-29T09:17:38.411Z,94.12
2017-11-29T09:20:05.980Z,94.17
2017-11-29T09:22:33.564Z,93.56
2017-11-29T09:25:01.258Z,92.55
2017-11-29T09:27:28.917Z,92.04
2017-11-29T09:29:56.479Z,91.83
2017-11-29T09:32:24.092Z,89.06
2017-11-29T09:34:51.713Z,87.53
2017-11-29T09:37:19.274Z,86.96
2017-11-29T09:39:46.955Z,86.22
2017-11-29T09:42:14.733Z,86.52
2017-11-29T09:44:42.611Z,86.37
2017-11-29T09:47:10.470Z,86.81
2017-11-29T09:49:38.108Z,86.90
2017-11-29T09:52:05.678Z,86.39
2017-11-29T09:54:33.365Z,87.01
2017-11-29T09:57:01.004Z,85.88
2017-11-29T09:59:28.640Z,84.87
2017-11-29T10:01:56.331Z,84.47
2017-11-29T10:04:23.979Z,84.81
2017-11-29T10:06:51.562Z,85.76
2017-11-29T10:09:19.148Z,85.71
2017-11-29T10:11:46.796Z,85.13
2017-11-29T10:14:14.433Z,85.81
2017-11-29T10:16:42.076Z,85.63
2017-11-29T10:19:09.899Z,85.99
2017-11-29T10:21:37.623Z,85.64
2017-11-29T10:24:05.325Z,85.38
2017-11-29T10:26:32.920Z,86.15
2017-11-29T10:29:00.534Z,84.06
2017-11-29T10:31:28.286Z,84.27
2017-11-29T10:33:55.842Z,84.16
2017-11-29T10:36:23.443Z,84.61
2017-11-29T10:38:51.084Z,84.72
2017-11-29T10:41:18.639Z,85.61
2017-11-29T10:43:46.239Z,85.46
2017-11-29T10:46:13.873Z,85.10
2017-11-29T10:48:41.514Z,83.66
2017-11-29T10:51:09.190Z,83.55
2017-11-29T10:53:36.831Z,83.90
2017-11-29T10:56:04.443Z,82.18
2017-11-29T10:58:32.338Z,81.55
2017-11-29T11:00:59.916Z,82.00
2017-11-29T11:03:27.506Z,81.11
2017-11-29T11:05:55.134Z,81.30
2017-11-29T11:08:22.713Z,82.41
2017-11-29T11:10:50.340Z,82.26
2017-11-29T11:13:18.019Z,81.30
2017-11-29T11:15:45.600Z,81.49
2017-11-29T11:18:13.231Z,82.44
2017-11-29T11:20:40.908Z,82.99
2017-11-29T11:23:08.645Z,83.60
2017-11-29T11:25:36.499Z,84.38
2017-11-29T11:28:04.268Z,83.77
2017-11-29T11:30:31.965Z,84.67
2017-11-29T11:32:59.614Z,84.47
2017-11-29T11:35:27.259Z,83.57
2017-11-29T11:37:55.253Z,83.44
2017-11-29T11:40:22.860Z,83.75
2017-11-29T11:42:50.502Z,84.11
2017-11-29T11:45:18.196Z,83.99
2017-11-29T11:47:45.779Z,84.22
2017-11-29T11:50:13.400Z,85.21
2017-11-29T11:52:41.094Z,84.96
2017-11-29T11:55:10.098Z,84.05
2017-11-29T11:57:38.167Z,84.57
2017-11-29T12:00:06.151Z,85.02
2017-11-29T12:02:33.721Z,84.87
2017-11-29T12:07:51.695Z,84.98
2017-11-29T12:10:19.310Z,85.55
2017-11-29T12:12:46.955Z,85.70
2017-11-29T12:15:14.592Z,85.75
2017-11-29T12:17:42.200Z,85.59
2017-11-29T12:20:09.856Z,85.59
2017-11-29T12:22:37.440Z,85.09
2017-11-29T12:25:05.011Z,84.53
2017-11-29T12:27:32.631Z,84.73
2017-11-29T12:30:00.265Z,84.66
2017-11-29T12:32:27.909Z,84.94
2017-11-29T12:34:55.534Z,84.90
2017-11-29T12:37:23.116Z,85.08
2017-11-29T12:39:51.208Z,85.30
2017-11-29T12:42:19.204Z,85.54
2017-11-29T12:44:46.828Z,85.50
2017-11-29T12:47:16.260Z,85.88
2017-11-29T12:49:55.902Z,85.01
2017-11-29T12:52:24.689Z,85.64
2017-11-29T12:54:53.283Z,86.51
2017-11-29T12:57:20.849Z,86.10
2017-11-29T12:59:48.911Z,85.82
2017-11-29T13:02:16.813Z,84.70
2017-11-29T13:04:44.393Z,84.91
2017-11-29T13:07:12.248Z,84.92
2017-11-29T13:09:40.103Z,85.20
2017-11-29T13:12:07.678Z,85.05
2017-11-29T13:14:35.283Z,85.55
2017-11-29T13:17:02.985Z,85.49
2017-11-29T13:19:30.561Z,85.42
2017-11-29T13:21:58.546Z,85.42
2017-11-29T13:24:26.383Z,85.89
2017-11-29T13:26:54.046Z,86.21
2017-11-29T13:29:22.363Z,86.52
2017-11-29T13:31:50.090Z,86.67
2017-11-29T13:34:17.683Z,86.61
2017-11-29T13:36:45.337Z,86.70
2017-11-29T13:39:12.951Z,86.84
2017-11-29T13:41:40.530Z,86.83
2017-11-29T13:44:08.103Z,86.83
2017-11-29T13:46:35.794Z,86.76
2017-11-29T13:49:03.378Z,87.17
2017-11-29T13:51:30.986Z,86.78
2017-11-29T13:53:58.642Z,86.60
2017-11-29T13:56:26.257Z,86.78
2017-11-29T13:58:53.851Z,86.88
2017-11-29T14:01:21.415Z,86.70
2017-11-29T14:03:49.065Z,86.38
2017-11-29T14:06:16.673Z,85.38
2017-11-29T14:08:44.226Z,86.16
2017-11-29T14:11:11.799Z,86.30
2017-11-29T14:13:39.388Z,86.15
2017-11-29T14:16:06.947Z,87.06
2017-11-29T14:18:34.495Z,88.12
2017-11-29T14:21:02.063Z,88.70
2017-11-29T14:23:30.139Z,87.86
2017-11-29T14:25:57.928Z,87.90
2017-11-29T14:28:25.719Z,87.31
2017-11-29T14:30:53.306Z,87.17
2017-11-29T14:33:20.973Z,87.54
2017-11-29T14:35:48.638Z,88.07
2017-11-29T14:38:16.284Z,88.85
2017-11-29T14:40:43.880Z,87.77
2017-11-29T14:43:11.743Z,88.07
2017-11-29T14:45:39.419Z,88.92
2017-11-29T14:48:07.191Z,89.88
2017-11-29T14:50:34.816Z,89.38
2017-11-29T14:53:02.386Z,88.10
2017-11-29T14:55:30.299Z,87.96
2017-11-29T14:57:57.885Z,88.01
2017-11-29T15:00:25.444Z,88.20
2017-11-29T15:02:53.012Z,88.41
2017-11-29T15:05:20.636Z,88.34
2017-11-29T15:07:49.241Z,87.70
2017-11-29T15:10:16.811Z,87.28
2017-11-29T15:12:44.429Z,87.54
2017-11-29T15:15:12.043Z,88.13
2017-11-29T15:17:39.687Z,88.19
2017-11-29T15:20:07.302Z,88.54
2017-11-29T15:22:34.897Z,88.75
2017-11-29T15:25:02.565Z,89.01
2017-11-29T15:27:30.269Z,88.98
2017-11-29T15:29:58.731Z,88.69
2017-11-29T15:32:26.843Z,88.85
2017-11-29T15:34:55.860Z,88.83
2017-11-29T15:37:23.752Z,89.22
2017-11-29T15:39:51.352Z,88.87
2017-11-29T15:42:18.995Z,88.98
2017-11-29T15:44:46.568Z,89.59
2017-11-29T15:47:14.575Z,89.12
2017-11-29T15:49:42.201Z,89.58
2017-11-29T15:52:11.216Z,90.27
2017-11-29T15:54:40.147Z,90.55
2017-11-29T15:57:07.761Z,90.31
2017-11-29T15:59:35.334Z,91.08
2017-11-29T16:02:02.910Z,91.46
2017-11-29T16:04:30.556Z,91.49
2017-11-29T16:06:58.158Z,90.84
2017-11-29T16:09:26.343Z,90.68
2017-11-29T16:11:54.285Z,91.21
2017-11-29T16:14:21.962Z,90.54
2017-11-29T16:16:49.573Z,90.66
2017-11-29T16:19:17.918Z,91.04
2017-11-29T16:21:47.485Z,91.56
2017-11-29T16:24:15.665Z,91.52
2017-11-29T16:26:43.324Z,91.27
2017-11-29T16:29:11.455Z,91.27
2017-11-29T16:31:39.036Z,90.98
2017-11-29T16:34:06.633Z,91.10
2017-11-29T16:36:34.225Z,90.85
2017-11-29T16:39:01.845Z,91.04
2017-11-29T16:41:29.450Z,91.98
2017-11-29T16:43:57.314Z,92.41
2017-11-29T16:46:25.846Z,92.64
2017-11-29T16:48:53.531Z,92.96
2017-11-29T16:51:21.652Z,93.18
2017-11-29T16:53:49.401Z,93.74
2017-11-29T16:56:16.972Z,93.25
2017-11-29T16:58:44.662Z,93.12
2017-11-29T17:01:12.252Z,93.53
2017-11-29T17:03:39.867Z,93.67
2017-11-29T17:06:07.475Z,93.79
2017-11-29T17:08:40.059Z,93.19
2017-11-29T17:11:07.769Z,93.08
2017-11-29T17:13:35.412Z,92.35
2017-11-29T17:16:05.022Z,92.42
2017-11-29T17:18:32.577Z,92.75
2017-11-29T17:21:00.222Z,92.66
2017-11-29T17:23:27.992Z,92.14
2017-11-29T17:25:55.622Z,91.98
2017-11-29T17:28:23.225Z,91.92
2017-11-29T17:30:50.856Z,92.09
2017-11-29T17:33:18.443Z,92.02
2017-11-29T17:35:46.023Z,92.19
2017-11-29T17:38:13.802Z,92.78
2017-11-29T17:40:41.389Z,93.39
2017-11-29T17:43:09.316Z,93.84
2017-11-29T17:45:36.950Z,94.13
2017-11-29T17:48:04.533Z,94.40
2017-11-29T17:50:32.818Z,94.61
2017-11-29T17:53:00.405Z,94.02
2017-11-29T17:55:27.952Z,93.31
2017-11-29T17:57:55.555Z,93.07
2017-11-29T18:00:23.169Z,92.77
2017-11-29T18:02:50.757Z,92.79
2017-11-29T18:05:18.396Z,92.47
2017-11-29T18:07:46.092Z,92.33
2017-11-29T18:10:13.715Z,92.05
2017-11-29T18:12:41.267Z,92.41
2017-11-29T18:15:08.932Z,92.49
2017-11-29T18:17:36.736Z,92.89
2017-11-29T18:20:04.309Z,93.08
2017-11-29T18:22:31.886Z,93.09
2017-11-29T18:24:59.492Z,93.62
2017-11-29T18:27:27.105Z,93.91
2017-11-29T18:29:54.709Z,93.86
2017-11-29T18:32:22.366Z,93.96
2017-11-29T18:34:49.994Z,93.68
2017-11-29T18:37:17.564Z,93.17
2017-11-29T18:39:45.255Z,92.75
2017-11-29T18:42:13.096Z,92.35
2017-11-29T18:44:40.897Z,92.20
2017-11-29T18:47:08.543Z,92.48
2017-11-29T18:49:36.189Z,92.13
2017-11-29T18:52:03.744Z,92.57
2017-11-29T18:54:31.493Z,92.94
2017-11-29T18:56:59.085Z,93.02
2017-11-29T18:59:26.666Z,93.54
2017-11-29T19:01:54.410Z,93.99
2017-11-29T19:04:22.021Z,93.64
2017-11-29T19:06:49.614Z,93.03
2017-11-29T19:09:17.237Z,92.91
2017-11-29T19:11:44.895Z,93.15
2017-11-29T19:14:12.518Z,93.44
2017-11-29T19:16:40.167Z,93.26
2017-11-29T19:19:08.743Z,93.52
2017-11-29T19:21:36.310Z,94.03
2017-11-29T19:24:03.911Z,94.24
2017-11-29T19:26:31.500Z,94.18
2017-11-29T19:28:59.422Z,93.66
2017-11-29T19:31:27.027Z,93.27
2017-11-29T19:33:54.584Z,93.18
2017-11-29T19:36:22.168Z,92.75
2017-11-29T19:38:49.811Z,93.09
2017-11-29T19:41:17.391Z,93.17
2017-11-29T19:43:45.021Z,92.75
2017-11-29T19:46:13.487Z,92.16
2017-11-29T19:48:42.765Z,92.24
2017-11-29T19:51:10.593Z,92.62
2017-11-29T19:53:38.224Z,92.54
2017-11-29T19:56:08.737Z,92.84
2017-11-29T19:58:36.509Z,93.39
2017-11-29T20:01:04.128Z,93.84
2017-11-29T20:03:31.691Z,94.34
2017-11-29T20:05:59.301Z,93.65
2017-11-29T20:08:26.897Z,93.39
2017-11-29T20:10:54.459Z,93.68
2017-11-29T20:13:22.256Z,93.98
2017-11-29T20:15:49.870Z,93.45
2017-11-29T20:18:17.470Z,93.06
2017-11-29T20:20:45.473Z,92.34
2017-11-29T20:23:13.097Z,92.96
2017-11-29T20:25:40.725Z,92.66
2017-11-29T20:28:08.395Z,92.87
2017-11-29T20:30:36.566Z,92.30
2017-11-29T20:33:04.219Z,92.17
2017-11-29T20:35:32.647Z,92.41
2017-11-29T20:38:00.218Z,92.41
2017-11-29T20:40:27.896Z,93.05
2017-11-29T20:42:55.551Z,93.40
2017-11-29T20:45:23.569Z,93.82
2017-11-29T20:47:51.140Z,93.85
2017-11-29T20:50:18.728Z,93.81
2017-11-29T20:52:55.198Z,93.10
2017-11-29T20:55:22.772Z,93.01
2017-11-29T20:57:50.378Z,93.18
2017-11-29T21:00:17.965Z,93.32
2017-11-29T21:02:45.540Z,93.32
2017-11-29T21:05:13.304Z,93.49
2017-11-29T21:07:41.106Z,93.76
2017-11-29T21:10:08.706Z,92.97
2017-11-29T21:12:36.371Z,92.88
2017-11-29T21:15:04.016Z,92.69
2017-11-29T21:17:31.692Z,92.55
2017-11-29T21:19:59.394Z,92.75
2017-11-29T21:22:27.006Z,93.55
2017-11-29T21:24:54.677Z,93.17
2017-11-29T21:27:22.239Z,93.27
2017-11-29T21:29:49.826Z,93.43
2017-11-29T21:32:17.458Z,93.52
2017-11-29T21:34:45.010Z,93.60
2017-11-29T21:37:12.700Z,93.53
2017-11-29T21:39:40.270Z,93.57
2017-11-29T21:42:07.840Z,93.29
2017-11-29T21:44:35.474Z,93.03
2017-11-29T21:47:03.072Z,92.82
2017-11-29T21:49:30.971Z,92.94
2017-11-29T21:51:58.572Z,92.86
2017-11-29T21:54:26.197Z,92.86
2017-11-29T21:56:53.767Z,92.77
2017-11-29T21:59:21.377Z,92.97
2017-11-29T22:01:48.980Z,93.24
2017-11-29T22:04:16.574Z,93.26
2017-11-29T22:06:44.136Z,93.60
2017-11-29T22:09:11.851Z,93.71
2017-11-29T22:11:39.509Z,93.59
2017-11-29T22:14:07.244Z,94.07
2017-11-29T22:16:34.823Z,94.42
2017-11-29T22:19:02.441Z,94.84
2017-11-29T22:21:30.055Z,95.34
2017-11-29T22:23:57.635Z,95.68
2017-11-29T22:26:25.253Z,95.84
2017-11-29T22:28:52.840Z,95.84
2017-11-29T22:31:20.424Z,96.05
2017-11-29T22:33:48.008Z,96.02
2017-11-29T22:36:15.584Z,95.95
2017-11-29T22:38:43.163Z,95.88
2017-11-29T22:41:10.856Z,95.91
2017-11-29T22:43:38.430Z,95.54
2017-11-29T22:46:06.021Z,95.39
2017-11-29T22:48:33.634Z,95.27
2017-11-29T22:51:01.216Z,94.93
2017-11-29T22:53:28.784Z,95.04
2017-11-29T22:55:56.364Z,94.88
2017-11-29T22:58:24.047Z,94.70
2017-11-29T23:00:51.660Z,94.58
2017-11-29T23:03:19.264Z,94.71
2017-11-29T23:05:46.816Z,94.88
2017-11-29T23:08:14.375Z,94.90
2017-11-29T23:10:41.958Z,95.14
2017-11-29T23:13:10.218Z,94.85
2017-11-29T23:15:37.845Z,94.03
2017-11-29T23:18:05.731Z,93.81
2017-11-29T23:20:33.279Z,93.30
2017-11-29T23:23:00.866Z,93.04
2017-11-29T23:25:29.487Z,93.54
2017-11-29T23:27:57.171Z,93.58
2017-11-29T23:30:24.732Z,93.73
2017-11-29T23:32:53.907Z,93.65
2017-11-29T23:35:21.984Z,93.71
2017-11-29T23:37:49.623Z,93.75
2017-11-29T23:40:17.219Z,93.98
2017-11-29T23:42:44.793Z,94.22
2017-11-29T23:45:12.389Z,94.54
2017-11-29T23:47:39.939Z,94.80
2017-11-29T23:50:07.526Z,94.73
2017-11-29T23:52:35.180Z,94.60
2017-11-29T23:55:02.786Z,93.48
2017-11-29T23:57:30.354Z,93.75
2017-11-29T23:59:57.939Z,93.58
